METAR Data
IDs: Format: Raw Decoded Include TAF

Data at: 1226 UTC 07 Jul 2020

KHVE 071215Z AUTO 00000KT 10SM CLR 16/M11 A2998 RMK AO2
KHVE 071155Z AUTO 00000KT 10SM CLR 16/M10 A2998 RMK AO2
KHVE 071135Z AUTO 34003KT 10SM CLR 17/M10 A2997 RMK AO2
KHVE 071115Z AUTO 00000KT 10SM CLR 15/M11 A2997 RMK AO2
KHVE 071055Z AUTO 00000KT 10SM CLR 17/M11 A2996 RMK AO2
KHVE 071035Z AUTO 00000KT 10SM CLR 18/M10 A2996 RMK AO2
KHVE 071015Z AUTO 00000KT 10SM CLR 18/M10 A2996 RMK AO2
KHVE 070955Z AUTO 00000KT 10SM CLR 17/M11 A2996 RMK AO2
KHVE 070935Z AUTO 00000KT 10SM CLR 19/M10 A2996 RMK AO2
KHVE 070915Z AUTO 10004KT 10SM CLR 21/M09 A2996 RMK AO2
KHVE 070855Z AUTO 07004KT 10SM CLR 23/M09 A2995 RMK AO2
KHVE 070835Z AUTO 00000KT 10SM CLR 23/M08 A2994 RMK AO2
KHVE 070815Z AUTO 00000KT 10SM CLR 23/M09 A2995 RMK AO2
KHVE 070755Z AUTO 27010KT 10SM CLR 26/M08 A2995 RMK AO2
KHVE 070735Z AUTO 27010KT 10SM CLR 26/M08 A2994 RMK AO2
KHVE 070715Z AUTO 26008KT 10SM CLR 26/M08 A2994 RMK AO2
KHVE 070655Z AUTO 24007KT 10SM CLR 28/M08 A2994 RMK AO2
KHVE 070635Z AUTO 23009KT 10SM CLR 27/M08 A2994 RMK AO2
KHVE 070615Z AUTO 24007KT 10SM CLR 26/M08 A2994 RMK AO2
KHVE 070555Z AUTO 23005KT 10SM CLR 25/M08 A2993 RMK AO2
KHVE 070535Z AUTO 00000KT 10SM CLR 26/M08 A2993 RMK AO2
KHVE 070515Z AUTO 00000KT 10SM CLR 25/M08 A2993 RMK AO2
KHVE 070455Z AUTO 00000KT 10SM CLR 29/M08 A2993 RMK AO2
KHVE 070435Z AUTO 21005KT 10SM CLR 30/M07 A2993 RMK AO2
KHVE 070415Z AUTO 21006KT 10SM CLR 31/M07 A2993 RMK AO2
KHVE 070355Z AUTO 21006KT 10SM CLR 32/M07 A2992 RMK AO2
KHVE 070335Z AUTO 21006KT 10SM CLR 32/M07 A2992 RMK AO2
KHVE 070315Z AUTO 21007KT 10SM CLR 33/M06 A2991 RMK AO2
KHVE 070255Z AUTO 22013G16KT 10SM CLR 34/M06 A2991 RMK AO2
KHVE 070235Z AUTO 21009G15KT 10SM CLR 35/M06 A2991 RMK AO2
KHVE 070215Z AUTO 21008G15KT 10SM CLR 36/M06 A2991 RMK AO2
KHVE 070155Z AUTO 20009G15KT 10SM CLR 36/M06 A2990 RMK AO2
KHVE 070135Z AUTO 20010KT 10SM CLR 37/M05 A2990 RMK AO2
KHVE 070115Z AUTO 22011G17KT 10SM CLR 37/M05 A2990 RMK AO2
KHVE 070055Z AUTO 20012G19KT 10SM CLR 37/M05 A2990 RMK AO2
KHVE 070035Z AUTO 20012G16KT 10SM CLR 38/M04 A2991 RMK AO2
KHVE 070015Z AUTO 21012G17KT 10SM CLR 38/M04 A2992 RMK AO2
KHVE 062355Z AUTO 22012G27KT 10SM CLR 38/M04 A2992 RMK AO2
KHVE 062335Z AUTO 21010G22KT 10SM CLR 38/M04 A2993 RMK AO2
KHVE 062315Z AUTO 24013G24KT 10SM CLR 39/M03 A2993 RMK AO2
KHVE 062255Z AUTO 22017G22KT 10SM CLR 39/M03 A2994 RMK AO2
KHVE 062240Z AUTO 22017G23KT 10SM CLR 40/M03 A2994 RMK AO2
KHVE 062215Z AUTO 23018G26KT 10SM CLR 40/M03 A2995 RMK AO2
KHVE 062155Z AUTO 22009G15KT 10SM CLR 40/M03 A2995 RMK AO2
KHVE 062135Z AUTO 20008G15KT 180V240 10SM CLR 40/M03 A2996 RMK AO2
KHVE 062115Z AUTO 23011G22KT 200V270 10SM CLR 40/M03 A2996 RMK AO2
KHVE 062055Z AUTO 19007G22KT 10SM CLR 39/M03 A2997 RMK AO2
KHVE 062035Z AUTO 23015G28KT 10SM CLR 38/M03 A2998 RMK AO2
KHVE 062015Z AUTO 10004KT 10SM CLR 37/M02 A2998 RMK AO2
KHVE 061955Z AUTO 08003G16KT 10SM CLR 38/M02 A3000 RMK AO2
KHVE 061935Z AUTO 00000KT 10SM CLR 37/M02 A3001 RMK AO2
KHVE 061915Z AUTO 18008G14KT 10SM CLR 37/M02 A3001 RMK AO2
KHVE 061855Z AUTO 00000KT 10SM CLR 36/M02 A3003 RMK AO2
KHVE 061835Z AUTO 00000KT 10SM CLR 36/M02 A3004 RMK AO2
KHVE 061815Z AUTO 19004KT 10SM CLR 35/M02 A3004 RMK AO2
KHVE 061755Z AUTO 00000KT 10SM CLR 34/M02 A3004 RMK AO2
KHVE 061735Z AUTO 18004KT 10SM CLR 33/M03 A3005 RMK AO2
KHVE 061715Z AUTO 00000KT 10SM CLR 32/M03 A3005 RMK AO2
KHVE 061655Z AUTO 16003KT 10SM CLR 32/M03 A3005 RMK AO2
KHVE 061635Z AUTO 00000KT 10SM CLR 31/M03 A3005 RMK AO2
KHVE 061615Z AUTO 16003KT 10SM CLR 31/M03 A3005 RMK AO2
KHVE 061555Z AUTO 00000KT 10SM CLR 29/M04 A3005 RMK AO2
KHVE 061535Z AUTO 00000KT 10SM CLR 28/M04 A3005 RMK AO2
KHVE 061515Z AUTO 00000KT 10SM CLR 27/M05 A3005 RMK AO2
KHVE 061455Z AUTO 00000KT 10SM CLR 26/M05 A3005 RMK AO2
KHVE 061435Z AUTO 18003KT 10SM CLR 23/M05 A3005 RMK AO2
KHVE 061415Z AUTO 00000KT 10SM CLR 22/M07 A3005 RMK AO2
KHVE 061355Z AUTO 00000KT 10SM CLR 20/M07 A3005 RMK AO2
KHVE 061335Z AUTO 00000KT 10SM CLR 19/M06 A3004 RMK AO2
KHVE 061315Z AUTO 00000KT 10SM CLR 18/M08 A3003 RMK AO2
KHVE 061255Z AUTO 35003KT 10SM CLR 14/M09 A3003 RMK AO2
KHVE 061235Z AUTO 00000KT 10SM CLR 13/M10 A3003 RMK AO2
KHVE 061215Z AUTO 00000KT 10SM CLR 13/M10 A3003 RMK AO2
KHVE 061155Z AUTO 00000KT 10SM CLR 14/M10 A3001 RMK AO2
KHVE 061135Z AUTO 00000KT 10SM CLR 15/M10 A3001 RMK AO2
KHVE 061115Z AUTO 00000KT 10SM CLR 15/M10 A3001 RMK AO2
KHVE 061055Z AUTO 00000KT 10SM CLR 16/M09 A3000 RMK AO2
KHVE 061035Z AUTO 00000KT 10SM CLR 16/M10 A2999 RMK AO2
KHVE 061015Z AUTO 03004KT 10SM CLR 16/M10 A2999 RMK AO2
KHVE 060955Z AUTO 00000KT 10SM CLR 16/M10 A2999 RMK AO2
KHVE 060935Z AUTO 00000KT 10SM CLR 18/M09 A2998 RMK AO2
KHVE 060915Z AUTO 00000KT 10SM CLR 21/M07 A2997 RMK AO2
KHVE 060855Z AUTO 36003KT 10SM CLR 19/M08 A2997 RMK AO2
KHVE 060835Z AUTO 00000KT 10SM CLR 20/M09 A2997 RMK AO2
KHVE 060815Z AUTO 33003KT 10SM CLR 22/M08 A2997 RMK AO2
KHVE 060755Z AUTO 24004KT 10SM CLR 22/M08 A2997 RMK AO2
KHVE 060735Z AUTO 00000KT 10SM CLR 23/M08 A2997 RMK AO2
KHVE 060715Z AUTO 00000KT 10SM CLR 25/M07 A2996 RMK AO2
KHVE 060655Z AUTO 03003KT 10SM CLR 25/M07 A2996 RMK AO2
KHVE 060635Z AUTO 10003KT 10SM CLR 23/M08 A2996 RMK AO2
KHVE 060615Z AUTO 00000KT 10SM CLR 24/M08 A2996 RMK AO2
KHVE 060555Z AUTO 00000KT 10SM CLR 28/M07 A2996 RMK AO2
KHVE 060535Z AUTO 00000KT 10SM CLR 26/M08 A2996 RMK AO2
KHVE 060515Z AUTO 33005KT 10SM CLR 25/M08 A2996 RMK AO2
KHVE 060455Z AUTO 00000KT 10SM CLR 27/M07 A2995 RMK AO2
KHVE 060435Z AUTO 00000KT 10SM CLR 24/M08 A2995 RMK AO2
KHVE 060415Z AUTO 11004KT 10SM CLR 26/M07 A2994 RMK AO2
KHVE 060355Z AUTO 13006KT 10SM CLR 28/M07 A2993 RMK AO2
KHVE 060335Z AUTO 14005KT 10SM CLR 31/M06 A2993 RMK AO2
KHVE 060315Z AUTO 14005KT 10SM CLR 32/M06 A2992 RMK AO2
KHVE 060255Z AUTO 13006KT 10SM CLR 33/M06 A2992 RMK AO2
KHVE 060235Z AUTO 13007KT 10SM CLR 34/M05 A2992 RMK AO2
KHVE 060215Z AUTO 12008KT 10SM CLR 35/M05 A2992 RMK AO2
KHVE 060155Z AUTO 13008KT 10SM CLR 36/M05 A2992 RMK AO2
KHVE 060135Z AUTO 14010KT 10SM CLR 37/M04 A2992 RMK AO2
KHVE 060115Z AUTO 13009KT 10SM CLR 37/M04 A2992 RMK AO2
KHVE 060055Z AUTO 17007KT 10SM CLR 38/M04 A2992 RMK AO2
KHVE 060035Z AUTO 16004KT 10SM CLR 37/M04 A2992 RMK AO2